sensor_id;sensor_type;location;lat;lon;timestamp;P1;durP1;ratioP1;P2;durP2;ratioP2
14118;SDS011;7138;49.246;9.100;2023-08-01T00:00:01;8.07;;;3.30;;
14118;SDS011;7138;49.246;9.100;2023-08-01T00:02:30;9.45;;;3.92;;
14118;SDS011;7138;49.246;9.100;2023-08-01T00:04:58;8.43;;;3.88;;
14118;SDS011;7138;49.246;9.100;2023-08-01T00:07:24;8.77;;;3.75;;
14118;SDS011;7138;49.246;9.100;2023-08-01T00:09:51;9.60;;;3.15;;
14118;SDS011;7138;49.246;9.100;2023-08-01T00:12:17;9.00;;;3.88;;
14118;SDS011;7138;49.246;9.100;2023-08-01T00:14:43;6.18;;;3.30;;
14118;SDS011;7138;49.246;9.100;2023-08-01T00:17:08;7.82;;;3.90;;
14118;SDS011;7138;49.246;9.100;2023-08-01T00:19:35;7.50;;;3.85;;
14118;SDS011;7138;49.246;9.100;2023-08-01T00:22:02;7.63;;;3.70;;
14118;SDS011;7138;49.246;9.100;2023-08-01T00:24:28;9.38;;;3.80;;
14118;SDS011;7138;49.246;9.100;2023-08-01T00:26:54;7.00;;;3.60;;
14118;SDS011;7138;49.246;9.100;2023-08-01T00:29:21;7.10;;;3.35;;
14118;SDS011;7138;49.246;9.100;2023-08-01T00:31:46;7.22;;;3.60;;
14118;SDS011;7138;49.246;9.100;2023-08-01T00:34:12;9.00;;;3.47;;
14118;SDS011;7138;49.246;9.100;2023-08-01T00:36:38;8.95;;;3.55;;
14118;SDS011;7138;49.246;9.100;2023-08-01T00:39:05;7.75;;;3.20;;
14118;SDS011;7138;49.246;9.100;2023-08-01T00:41:31;9.15;;;3.80;;
14118;SDS011;7138;49.246;9.100;2023-08-01T00:43:57;6.22;;;3.65;;
14118;SDS011;7138;49.246;9.100;2023-08-01T00:46:23;7.53;;;3.80;;
14118;SDS011;7138;49.246;9.100;2023-08-01T00:48:50;8.88;;;3.72;;
14118;SDS011;7138;49.246;9.100;2023-08-01T00:51:15;8.25;;;3.08;;
14118;SDS011;7138;49.246;9.100;2023-08-01T00:53:43;10.82;;;3.35;;
14118;SDS011;7138;49.246;9.100;2023-08-01T00:56:12;7.13;;;3.58;;
14118;SDS011;7138;49.246;9.100;2023-08-01T00:58:39;10.10;;;3.67;;
14118;SDS011;7138;49.246;9.100;2023-08-01T01:01:05;8.43;;;3.47;;
14118;SDS011;7138;49.246;9.100;2023-08-01T01:03:31;7.40;;;3.85;;
14118;SDS011;7138;49.246;9.100;2023-08-01T01:06:00;8.38;;;4.60;;
14118;SDS011;7138;49.246;9.100;2023-08-01T01:08:34;9.95;;;3.60;;
14118;SDS011;7138;49.246;9.100;2023-08-01T01:11:00;7.00;;;3.50;;
14118;SDS011;7138;49.246;9.100;2023-08-01T01:13:27;7.15;;;3.90;;
14118;SDS011;7138;49.246;9.100;2023-08-01T01:15:53;7.97;;;3.60;;
14118;SDS011;7138;49.246;9.100;2023-08-01T01:18:18;7.85;;;3.40;;
14118;SDS011;7138;49.246;9.100;2023-08-01T01:20:46;7.93;;;3.92;;
14118;SDS011;7138;49.246;9.100;2023-08-01T01:23:11;9.05;;;3.47;;
14118;SDS011;7138;49.246;9.100;2023-08-01T01:25:37;7.07;;;3.25;;
14118;SDS011;7138;49.246;9.100;2023-08-01T01:28:06;6.78;;;3.38;;
14118;SDS011;7138;49.246;9.100;2023-08-01T01:30:34;7.15;;;3.72;;
14118;SDS011;7138;49.246;9.100;2023-08-01T01:33:02;6.78;;;3.60;;
14118;SDS011;7138;49.246;9.100;2023-08-01T01:35:30;8.82;;;3.40;;
14118;SDS011;7138;49.246;9.100;2023-08-01T01:38:00;7.50;;;3.30;;
14118;SDS011;7138;49.246;9.100;2023-08-01T01:40:28;10.73;;;3.55;;
14118;SDS011;7138;49.246;9.100;2023-08-01T01:42:55;6.50;;;3.65;;
14118;SDS011;7138;49.246;9.100;2023-08-01T01:45:21;7.15;;;3.47;;
14118;SDS011;7138;49.246;9.100;2023-08-01T01:47:46;7.85;;;3.50;;
14118;SDS011;7138;49.246;9.100;2023-08-01T01:50:12;8.60;;;3.55;;
14118;SDS011;7138;49.246;9.100;2023-08-01T01:52:38;10.75;;;3.95;;
14118;SDS011;7138;49.246;9.100;2023-08-01T01:55:06;8.77;;;3.67;;
14118;SDS011;7138;49.246;9.100;2023-08-01T01:57:32;7.25;;;3.38;;
14118;SDS011;7138;49.246;9.100;2023-08-01T02:00:01;8.48;;;4.05;;
14118;SDS011;7138;49.246;9.100;2023-08-01T02:02:27;8.75;;;3.72;;
14118;SDS011;7138;49.246;9.100;2023-08-01T02:04:53;9.02;;;3.58;;
14118;SDS011;7138;49.246;9.100;2023-08-01T02:07:18;9.20;;;3.90;;
14118;SDS011;7138;49.246;9.100;2023-08-01T02:09:44;10.80;;;3.38;;
14118;SDS011;7138;49.246;9.100;2023-08-01T02:12:12;8.05;;;3.35;;
14118;SDS011;7138;49.246;9.100;2023-08-01T02:14:41;8.07;;;3.70;;
14118;SDS011;7138;49.246;9.100;2023-08-01T02:17:07;7.78;;;3.33;;
14118;SDS011;7138;49.246;9.100;2023-08-01T02:19:33;8.10;;;3.63;;
14118;SDS011;7138;49.246;9.100;2023-08-01T02:21:59;7.85;;;4.00;;
14118;SDS011;7138;49.246;9.100;2023-08-01T02:24:25;7.22;;;3.40;;
14118;SDS011;7138;49.246;9.100;2023-08-01T02:26:51;7.30;;;3.47;;
14118;SDS011;7138;49.246;9.100;2023-08-01T02:29:18;9.02;;;4.60;;
14118;SDS011;7138;49.246;9.100;2023-08-01T02:31:43;8.82;;;3.60;;
14118;SDS011;7138;49.246;9.100;2023-08-01T02:34:09;9.55;;;3.70;;
14118;SDS011;7138;49.246;9.100;2023-08-01T02:36:35;9.18;;;3.60;;
14118;SDS011;7138;49.246;9.100;2023-08-01T02:39:01;9.07;;;4.05;;
14118;SDS011;7138;49.246;9.100;2023-08-01T02:41:27;6.93;;;3.42;;
14118;SDS011;7138;49.246;9.100;2023-08-01T02:43:53;6.68;;;3.70;;
14118;SDS011;7138;49.246;9.100;2023-08-01T02:46:20;8.32;;;3.80;;
14118;SDS011;7138;49.246;9.100;2023-08-01T02:48:46;10.77;;;3.75;;
14118;SDS011;7138;49.246;9.100;2023-08-01T02:51:12;6.35;;;3.38;;
14118;SDS011;7138;49.246;9.100;2023-08-01T02:53:37;7.57;;;3.95;;
14118;SDS011;7138;49.246;9.100;2023-08-01T02:56:06;6.90;;;3.50;;
14118;SDS011;7138;49.246;9.100;2023-08-01T02:58:33;8.40;;;3.70;;
14118;SDS011;7138;49.246;9.100;2023-08-01T03:00:59;8.88;;;3.78;;
14118;SDS011;7138;49.246;9.100;2023-08-01T03:03:27;7.80;;;3.80;;
14118;SDS011;7138;49.246;9.100;2023-08-01T03:05:53;6.88;;;3.70;;
14118;SDS011;7138;49.246;9.100;2023-08-01T03:08:19;8.65;;;4.00;;
14118;SDS011;7138;49.246;9.100;2023-08-01T03:10:45;8.88;;;3.55;;
14118;SDS011;7138;49.246;9.100;2023-08-01T03:13:11;9.13;;;3.65;;
14118;SDS011;7138;49.246;9.100;2023-08-01T03:15:36;6.68;;;3.55;;
14118;SDS011;7138;49.246;9.100;2023-08-01T03:18:02;8.02;;;4.30;;
14118;SDS011;7138;49.246;9.100;2023-08-01T03:20:30;9.38;;;3.83;;
14118;SDS011;7138;49.246;9.100;2023-08-01T03:22:56;8.50;;;3.50;;
14118;SDS011;7138;49.246;9.100;2023-08-01T03:25:22;6.97;;;3.63;;
14118;SDS011;7138;49.246;9.100;2023-08-01T03:27:48;8.45;;;3.72;;
14118;SDS011;7138;49.246;9.100;2023-08-01T03:30:13;8.80;;;3.80;;
14118;SDS011;7138;49.246;9.100;2023-08-01T03:32:39;8.07;;;3.83;;
14118;SDS011;7138;49.246;9.100;2023-08-01T03:35:06;7.68;;;3.75;;
14118;SDS011;7138;49.246;9.100;2023-08-01T03:37:33;8.40;;;3.88;;
14118;SDS011;7138;49.246;9.100;2023-08-01T03:39:59;7.78;;;3.85;;
14118;SDS011;7138;49.246;9.100;2023-08-01T03:42:25;8.20;;;3.85;;
14118;SDS011;7138;49.246;9.100;2023-08-01T03:44:51;7.65;;;3.72;;
14118;SDS011;7138;49.246;9.100;2023-08-01T03:47:17;8.52;;;3.90;;
14118;SDS011;7138;49.246;9.100;2023-08-01T03:49:42;7.32;;;3.63;;
14118;SDS011;7138;49.246;9.100;2023-08-01T03:52:08;7.63;;;4.03;;
14118;SDS011;7138;49.246;9.100;2023-08-01T03:54:36;12.63;;;5.03;;
14118;SDS011;7138;49.246;9.100;2023-08-01T03:57:02;9.18;;;3.92;;
14118;SDS011;7138;49.246;9.100;2023-08-01T03:59:29;9.75;;;4.03;;
14118;SDS011;7138;49.246;9.100;2023-08-01T04:01:55;8.48;;;3.90;;
14118;SDS011;7138;49.246;9.100;2023-08-01T04:04:20;7.85;;;3.90;;
14118;SDS011;7138;49.246;9.100;2023-08-01T04:06:46;10.10;;;4.20;;
14118;SDS011;7138;49.246;9.100;2023-08-01T04:09:12;9.43;;;4.05;;
14118;SDS011;7138;49.246;9.100;2023-08-01T04:11:40;7.50;;;4.13;;
14118;SDS011;7138;49.246;9.100;2023-08-01T04:14:06;8.20;;;4.10;;
14118;SDS011;7138;49.246;9.100;2023-08-01T04:16:31;10.85;;;4.63;;
14118;SDS011;7138;49.246;9.100;2023-08-01T04:18:57;7.30;;;3.63;;
14118;SDS011;7138;49.246;9.100;2023-08-01T04:21:23;8.70;;;3.80;;
14118;SDS011;7138;49.246;9.100;2023-08-01T04:23:49;12.93;;;5.18;;
14118;SDS011;7138;49.246;9.100;2023-08-01T04:26:15;10.00;;;4.32;;
14118;SDS011;7138;49.246;9.100;2023-08-01T04:28:42;9.75;;;3.95;;
14118;SDS011;7138;49.246;9.100;2023-08-01T04:31:08;8.10;;;3.88;;
14118;SDS011;7138;49.246;9.100;2023-08-01T04:33:34;13.60;;;4.60;;
14118;SDS011;7138;49.246;9.100;2023-08-01T04:35:59;10.60;;;4.15;;
14118;SDS011;7138;49.246;9.100;2023-08-01T04:38:26;8.63;;;4.05;;
14118;SDS011;7138;49.246;9.100;2023-08-01T04:40:52;9.02;;;4.13;;
14118;SDS011;7138;49.246;9.100;2023-08-01T04:43:18;7.03;;;3.90;;
14118;SDS011;7138;49.246;9.100;2023-08-01T04:45:45;7.95;;;3.80;;
14118;SDS011;7138;49.246;9.100;2023-08-01T04:48:11;10.35;;;3.75;;
14118;SDS011;7138;49.246;9.100;2023-08-01T04:50:37;8.65;;;3.97;;
14118;SDS011;7138;49.246;9.100;2023-08-01T04:53:02;7.22;;;3.97;;
14118;SDS011;7138;49.246;9.100;2023-08-01T04:55:29;10.32;;;4.00;;
14118;SDS011;7138;49.246;9.100;2023-08-01T04:57:55;8.57;;;4.15;;
14118;SDS011;7138;49.246;9.100;2023-08-01T05:00:21;8.60;;;3.67;;
14118;SDS011;7138;49.246;9.100;2023-08-01T05:02:48;9.30;;;4.10;;
14118;SDS011;7138;49.246;9.100;2023-08-01T05:05:14;8.48;;;3.95;;
14118;SDS011;7138;49.246;9.100;2023-08-01T05:07:41;9.93;;;4.07;;
14118;SDS011;7138;49.246;9.100;2023-08-01T05:10:07;10.00;;;4.00;;
14118;SDS011;7138;49.246;9.100;2023-08-01T05:12:33;11.52;;;3.90;;
14118;SDS011;7138;49.246;9.100;2023-08-01T05:14:59;8.45;;;3.65;;
14118;SDS011;7138;49.246;9.100;2023-08-01T05:17:25;11.40;;;4.05;;
14118;SDS011;7138;49.246;9.100;2023-08-01T05:19:52;10.60;;;4.50;;
14118;SDS011;7138;49.246;9.100;2023-08-01T05:22:19;6.82;;;3.90;;
14118;SDS011;7138;49.246;9.100;2023-08-01T05:24:45;7.13;;;3.80;;
14118;SDS011;7138;49.246;9.100;2023-08-01T05:27:11;8.77;;;3.92;;
14118;SDS011;7138;49.246;9.100;2023-08-01T05:29:36;9.77;;;3.90;;
14118;SDS011;7138;49.246;9.100;2023-08-01T05:32:02;8.00;;;3.65;;
14118;SDS011;7138;49.246;9.100;2023-08-01T05:34:29;7.93;;;3.90;;
14118;SDS011;7138;49.246;9.100;2023-08-01T05:36:56;7.57;;;3.55;;
14118;SDS011;7138;49.246;9.100;2023-08-01T05:39:22;13.85;;;4.00;;
14118;SDS011;7138;49.246;9.100;2023-08-01T05:41:47;7.90;;;4.03;;
14118;SDS011;7138;49.246;9.100;2023-08-01T05:44:15;8.65;;;3.90;;
14118;SDS011;7138;49.246;9.100;2023-08-01T05:46:41;9.95;;;3.38;;
14118;SDS011;7138;49.246;9.100;2023-08-01T05:49:07;7.45;;;3.70;;
14118;SDS011;7138;49.246;9.100;2023-08-01T05:51:32;10.55;;;3.42;;
14118;SDS011;7138;49.246;9.100;2023-08-01T05:54:00;9.30;;;3.95;;
14118;SDS011;7138;49.246;9.100;2023-08-01T05:56:25;8.25;;;3.75;;
14118;SDS011;7138;49.246;9.100;2023-08-01T05:58:51;9.60;;;3.88;;
14118;SDS011;7138;49.246;9.100;2023-08-01T06:01:17;10.25;;;4.15;;
14118;SDS011;7138;49.246;9.100;2023-08-01T06:03:44;7.93;;;4.00;;
14118;SDS011;7138;49.246;9.100;2023-08-01T06:06:10;10.30;;;3.55;;
14118;SDS011;7138;49.246;9.100;2023-08-01T06:08:36;11.70;;;4.15;;
14118;SDS011;7138;49.246;9.100;2023-08-01T06:11:03;11.43;;;4.30;;
14118;SDS011;7138;49.246;9.100;2023-08-01T06:13:29;8.43;;;3.50;;
14118;SDS011;7138;49.246;9.100;2023-08-01T06:15:55;9.23;;;4.05;;
14118;SDS011;7138;49.246;9.100;2023-08-01T06:18:20;8.25;;;3.95;;
14118;SDS011;7138;49.246;9.100;2023-08-01T06:20:46;11.93;;;3.80;;
14118;SDS011;7138;49.246;9.100;2023-08-01T06:23:12;8.55;;;3.65;;
14118;SDS011;7138;49.246;9.100;2023-08-01T06:25:38;9.15;;;3.80;;
14118;SDS011;7138;49.246;9.100;2023-08-01T06:28:05;8.30;;;3.88;;
14118;SDS011;7138;49.246;9.100;2023-08-01T06:30:31;8.20;;;3.47;;
14118;SDS011;7138;49.246;9.100;2023-08-01T06:32:57;8.80;;;3.35;;
14118;SDS011;7138;49.246;9.100;2023-08-01T06:35:23;11.90;;;3.85;;
14118;SDS011;7138;49.246;9.100;2023-08-01T06:37:49;11.27;;;3.78;;
14118;SDS011;7138;49.246;9.100;2023-08-01T06:40:14;9.50;;;3.63;;
14118;SDS011;7138;49.246;9.100;2023-08-01T06:42:40;8.15;;;3.70;;
14118;SDS011;7138;49.246;9.100;2023-08-01T06:45:08;8.90;;;3.55;;
14118;SDS011;7138;49.246;9.100;2023-08-01T06:47:34;11.23;;;4.32;;
14118;SDS011;7138;49.246;9.100;2023-08-01T06:50:00;10.77;;;3.92;;
14118;SDS011;7138;49.246;9.100;2023-08-01T06:52:26;8.77;;;3.80;;
14118;SDS011;7138;49.246;9.100;2023-08-01T06:54:51;8.10;;;4.40;;
14118;SDS011;7138;49.246;9.100;2023-08-01T06:57:17;8.90;;;3.90;;
14118;SDS011;7138;49.246;9.100;2023-08-01T06:59:43;8.77;;;3.85;;
14118;SDS011;7138;49.246;9.100;2023-08-01T07:02:10;10.27;;;4.43;;
14118;SDS011;7138;49.246;9.100;2023-08-01T07:04:36;11.48;;;4.15;;
14118;SDS011;7138;49.246;9.100;2023-08-01T07:07:03;10.00;;;4.32;;
14118;SDS011;7138;49.246;9.100;2023-08-01T07:09:29;9.75;;;4.07;;
14118;SDS011;7138;49.246;9.100;2023-08-01T07:11:55;11.82;;;4.10;;
14118;SDS011;7138;49.246;9.100;2023-08-01T07:14:21;7.35;;;3.22;;
14118;SDS011;7138;49.246;9.100;2023-08-01T07:16:47;6.90;;;3.13;;
14118;SDS011;7138;49.246;9.100;2023-08-01T07:19:14;10.52;;;4.50;;
14118;SDS011;7138;49.246;9.100;2023-08-01T07:21:40;10.75;;;3.70;;
14118;SDS011;7138;49.246;9.100;2023-08-01T07:24:05;8.00;;;3.47;;
14118;SDS011;7138;49.246;9.100;2023-08-01T07:26:31;9.18;;;4.22;;
14118;SDS011;7138;49.246;9.100;2023-08-01T07:28:57;7.65;;;3.90;;
14118;SDS011;7138;49.246;9.100;2023-08-01T07:31:23;8.63;;;3.15;;
14118;SDS011;7138;49.246;9.100;2023-08-01T07:33:49;6.97;;;3.85;;
14118;SDS011;7138;49.246;9.100;2023-08-01T07:36:16;9.35;;;3.83;;
14118;SDS011;7138;49.246;9.100;2023-08-01T07:38:42;8.85;;;3.65;;
14118;SDS011;7138;49.246;9.100;2023-08-01T07:41:08;9.70;;;3.50;;
14118;SDS011;7138;49.246;9.100;2023-08-01T07:43:34;7.15;;;3.83;;
14118;SDS011;7138;49.246;9.100;2023-08-01T07:45:59;10.73;;;3.72;;
14118;SDS011;7138;49.246;9.100;2023-08-01T07:48:25;8.05;;;3.80;;
14118;SDS011;7138;49.246;9.100;2023-08-01T07:50:51;7.35;;;3.75;;
14118;SDS011;7138;49.246;9.100;2023-08-01T07:53:19;8.98;;;4.30;;
14118;SDS011;7138;49.246;9.100;2023-08-01T07:55:45;7.50;;;3.65;;
14118;SDS011;7138;49.246;9.100;2023-08-01T07:58:10;8.50;;;3.63;;
14118;SDS011;7138;49.246;9.100;2023-08-01T08:00:36;8.48;;;4.00;;
14118;SDS011;7138;49.246;9.100;2023-08-01T08:03:02;8.43;;;3.80;;
14118;SDS011;7138;49.246;9.100;2023-08-01T08:05:30;9.52;;;3.78;;
14118;SDS011;7138;49.246;9.100;2023-08-01T08:07:56;9.50;;;4.40;;
14118;SDS011;7138;49.246;9.100;2023-08-01T08:10:23;7.28;;;3.40;;
14118;SDS011;7138;49.246;9.100;2023-08-01T08:12:49;7.32;;;3.33;;
14118;SDS011;7138;49.246;9.100;2023-08-01T08:15:16;5.75;;;3.45;;
14118;SDS011;7138;49.246;9.100;2023-08-01T08:17:42;7.35;;;3.50;;
14118;SDS011;7138;49.246;9.100;2023-08-01T08:20:08;9.30;;;3.50;;
14118;SDS011;7138;49.246;9.100;2023-08-01T08:22:34;8.05;;;3.22;;
14118;SDS011;7138;49.246;9.100;2023-08-01T08:25:00;5.53;;;3.40;;
14118;SDS011;7138;49.246;9.100;2023-08-01T08:27:27;6.80;;;3.20;;
14118;SDS011;7138;49.246;9.100;2023-08-01T08:29:53;7.68;;;2.88;;
14118;SDS011;7138;49.246;9.100;2023-08-01T08:32:20;7.47;;;2.90;;
14118;SDS011;7138;49.246;9.100;2023-08-01T08:34:46;6.13;;;2.60;;
14118;SDS011;7138;49.246;9.100;2023-08-01T08:37:11;7.75;;;3.08;;
14118;SDS011;7138;49.246;9.100;2023-08-01T08:39:37;4.57;;;2.30;;
14118;SDS011;7138;49.246;9.100;2023-08-01T08:42:03;6.53;;;2.83;;
14118;SDS011;7138;49.246;9.100;2023-08-01T08:44:31;5.32;;;2.80;;
14118;SDS011;7138;49.246;9.100;2023-08-01T08:47:07;6.30;;;2.55;;
14118;SDS011;7138;49.246;9.100;2023-08-01T08:49:37;6.07;;;2.28;;
14118;SDS011;7138;49.246;9.100;2023-08-01T08:52:05;6.22;;;2.67;;
14118;SDS011;7138;49.246;9.100;2023-08-01T08:54:32;5.32;;;2.47;;
14118;SDS011;7138;49.246;9.100;2023-08-01T08:57:00;4.43;;;2.20;;
14118;SDS011;7138;49.246;9.100;2023-08-01T08:59:29;3.80;;;1.73;;
14118;SDS011;7138;49.246;9.100;2023-08-01T09:01:57;3.35;;;1.65;;
14118;SDS011;7138;49.246;9.100;2023-08-01T09:04:22;5.20;;;1.70;;
14118;SDS011;7138;49.246;9.100;2023-08-01T09:06:49;4.47;;;1.50;;
14118;SDS011;7138;49.246;9.100;2023-08-01T09:09:20;2.95;;;1.40;;
14118;SDS011;7138;49.246;9.100;2023-08-01T09:11:48;4.68;;;1.40;;
14118;SDS011;7138;49.246;9.100;2023-08-01T09:14:16;4.15;;;1.20;;
14118;SDS011;7138;49.246;9.100;2023-08-01T09:16:44;3.30;;;1.35;;
14118;SDS011;7138;49.246;9.100;2023-08-01T09:19:16;3.85;;;1.42;;
14118;SDS011;7138;49.246;9.100;2023-08-01T09:21:43;5.00;;;1.67;;
14118;SDS011;7138;49.246;9.100;2023-08-01T09:24:09;2.97;;;1.40;;
14118;SDS011;7138;49.246;9.100;2023-08-01T09:26:37;5.18;;;1.40;;
14118;SDS011;7138;49.246;9.100;2023-08-01T09:29:04;3.25;;;1.38;;
14118;SDS011;7138;49.246;9.100;2023-08-01T09:31:33;6.18;;;1.50;;
14118;SDS011;7138;49.246;9.100;2023-08-01T09:34:02;3.38;;;1.27;;
14118;SDS011;7138;49.246;9.100;2023-08-01T09:36:32;2.75;;;1.05;;
14118;SDS011;7138;49.246;9.100;2023-08-01T09:38:59;1.92;;;0.80;;
14118;SDS011;7138;49.246;9.100;2023-08-01T09:41:26;3.80;;;1.08;;
14118;SDS011;7138;49.246;9.100;2023-08-01T09:43:53;2.53;;;0.90;;
14118;SDS011;7138;49.246;9.100;2023-08-01T09:46:19;2.30;;;0.95;;
14118;SDS011;7138;49.246;9.100;2023-08-01T09:48:45;2.75;;;1.10;;
14118;SDS011;7138;49.246;9.100;2023-08-01T09:51:13;3.22;;;0.93;;
14118;SDS011;7138;49.246;9.100;2023-08-01T09:53:47;2.88;;;1.00;;
14118;SDS011;7138;49.246;9.100;2023-08-01T09:56:15;3.55;;;0.75;;
14118;SDS011;7138;49.246;9.100;2023-08-01T09:58:45;2.10;;;0.80;;
14118;SDS011;7138;49.246;9.100;2023-08-01T10:01:13;2.25;;;0.80;;
14118;SDS011;7138;49.246;9.100;2023-08-01T10:03:41;2.70;;;0.63;;
14118;SDS011;7138;49.246;9.100;2023-08-01T10:06:18;2.90;;;0.98;;
14118;SDS011;7138;49.246;9.100;2023-08-01T10:08:46;2.20;;;0.70;;
14118;SDS011;7138;49.246;9.100;2023-08-01T10:11:13;2.33;;;0.75;;
14118;SDS011;7138;49.246;9.100;2023-08-01T10:13:42;1.73;;;0.70;;
14118;SDS011;7138;49.246;9.100;2023-08-01T10:16:09;2.97;;;0.80;;
14118;SDS011;7138;49.246;9.100;2023-08-01T10:18:35;1.33;;;0.50;;
14118;SDS011;7138;49.246;9.100;2023-08-01T10:21:03;2.38;;;0.80;;
14118;SDS011;7138;49.246;9.100;2023-08-01T10:23:33;2.30;;;0.80;;
14118;SDS011;7138;49.246;9.100;2023-08-01T10:26:00;1.88;;;0.77;;
14118;SDS011;7138;49.246;9.100;2023-08-01T10:28:32;2.60;;;0.73;;
14118;SDS011;7138;49.246;9.100;2023-08-01T10:31:12;3.05;;;0.82;;
14118;SDS011;7138;49.246;9.100;2023-08-01T10:36:12;1.98;;;0.70;;
14118;SDS011;7138;49.246;9.100;2023-08-01T10:38:48;2.33;;;0.80;;
14118;SDS011;7138;49.246;9.100;2023-08-01T10:41:20;2.30;;;0.80;;
14118;SDS011;7138;49.246;9.100;2023-08-01T10:43:52;1.55;;;0.65;;
14118;SDS011;7138;49.246;9.100;2023-08-01T10:46:33;1.83;;;0.70;;
14118;SDS011;7138;49.246;9.100;2023-08-01T10:49:12;2.38;;;0.70;;
14118;SDS011;7138;49.246;9.100;2023-08-01T10:51:37;1.55;;;0.55;;
14118;SDS011;7138;49.246;9.100;2023-08-01T10:54:05;4.22;;;0.50;;
14118;SDS011;7138;49.246;9.100;2023-08-01T10:56:31;2.35;;;0.70;;
14118;SDS011;7138;49.246;9.100;2023-08-01T10:58:58;1.50;;;0.50;;
14118;SDS011;7138;49.246;9.100;2023-08-01T11:01:24;2.55;;;0.60;;
14118;SDS011;7138;49.246;9.100;2023-08-01T11:03:53;1.50;;;0.68;;
14118;SDS011;7138;49.246;9.100;2023-08-01T11:06:18;6.72;;;0.70;;
14118;SDS011;7138;49.246;9.100;2023-08-01T11:08:44;6.63;;;0.70;;
14118;SDS011;7138;49.246;9.100;2023-08-01T11:11:12;2.35;;;1.00;;
14118;SDS011;7138;49.246;9.100;2023-08-01T11:13:40;1.75;;;0.52;;
14118;SDS011;7138;49.246;9.100;2023-08-01T11:16:06;4.03;;;0.77;;
14118;SDS011;7138;49.246;9.100;2023-08-01T11:18:40;1.92;;;0.60;;
14118;SDS011;7138;49.246;9.100;2023-08-01T11:21:07;1.92;;;0.60;;
14118;SDS011;7138;49.246;9.100;2023-08-01T11:23:32;2.53;;;0.68;;
14118;SDS011;7138;49.246;9.100;2023-08-01T11:25:58;3.80;;;0.70;;
14118;SDS011;7138;49.246;9.100;2023-08-01T11:28:25;3.88;;;0.65;;
14118;SDS011;7138;49.246;9.100;2023-08-01T11:30:51;1.27;;;0.52;;
14118;SDS011;7138;49.246;9.100;2023-08-01T11:33:18;2.20;;;0.75;;
14118;SDS011;7138;49.246;9.100;2023-08-01T11:35:46;2.33;;;0.70;;
14118;SDS011;7138;49.246;9.100;2023-08-01T11:38:16;3.03;;;0.90;;
14118;SDS011;7138;49.246;9.100;2023-08-01T11:40:42;2.47;;;0.65;;
14118;SDS011;7138;49.246;9.100;2023-08-01T11:43:08;2.80;;;0.80;;
14118;SDS011;7138;49.246;9.100;2023-08-01T11:45:35;3.33;;;0.80;;
14118;SDS011;7138;49.246;9.100;2023-08-01T11:48:01;2.95;;;0.93;;
14118;SDS011;7138;49.246;9.100;2023-08-01T11:50:27;2.08;;;0.70;;
14118;SDS011;7138;49.246;9.100;2023-08-01T11:52:53;3.88;;;1.02;;
14118;SDS011;7138;49.246;9.100;2023-08-01T11:55:22;2.08;;;0.77;;
14118;SDS011;7138;49.246;9.100;2023-08-01T11:57:51;2.40;;;0.90;;
14118;SDS011;7138;49.246;9.100;2023-08-01T12:00:23;3.13;;;0.88;;
14118;SDS011;7138;49.246;9.100;2023-08-01T12:02:52;3.03;;;1.00;;
14118;SDS011;7138;49.246;9.100;2023-08-01T12:05:29;2.35;;;0.95;;
14118;SDS011;7138;49.246;9.100;2023-08-01T12:07:55;2.67;;;0.80;;
14118;SDS011;7138;49.246;9.100;2023-08-01T12:10:21;1.95;;;0.80;;
14118;SDS011;7138;49.246;9.100;2023-08-01T12:12:48;3.35;;;1.00;;
14118;SDS011;7138;49.246;9.100;2023-08-01T12:15:14;2.65;;;0.90;;
14118;SDS011;7138;49.246;9.100;2023-08-01T12:17:40;2.72;;;0.88;;
14118;SDS011;7138;49.246;9.100;2023-08-01T12:20:08;3.15;;;0.75;;
14118;SDS011;7138;49.246;9.100;2023-08-01T12:22:35;2.42;;;0.93;;
14118;SDS011;7138;49.246;9.100;2023-08-01T12:25:01;3.05;;;0.82;;
14118;SDS011;7138;49.246;9.100;2023-08-01T12:27:27;5.20;;;1.00;;
14118;SDS011;7138;49.246;9.100;2023-08-01T12:29:52;2.72;;;1.05;;
14118;SDS011;7138;49.246;9.100;2023-08-01T12:32:18;6.95;;;1.65;;
14118;SDS011;7138;49.246;9.100;2023-08-01T12:34:44;3.60;;;1.00;;
14118;SDS011;7138;49.246;9.100;2023-08-01T12:37:11;3.42;;;1.13;;
14118;SDS011;7138;49.246;9.100;2023-08-01T12:39:37;2.75;;;1.00;;
14118;SDS011;7138;49.246;9.100;2023-08-01T12:42:03;2.58;;;0.90;;
14118;SDS011;7138;49.246;9.100;2023-08-01T12:44:30;4.38;;;1.02;;
14118;SDS011;7138;49.246;9.100;2023-08-01T12:46:56;3.58;;;1.10;;
14118;SDS011;7138;49.246;9.100;2023-08-01T12:49:22;5.40;;;1.05;;
14118;SDS011;7138;49.246;9.100;2023-08-01T12:51:47;4.40;;;1.05;;
14118;SDS011;7138;49.246;9.100;2023-08-01T12:54:15;3.63;;;1.25;;
14118;SDS011;7138;49.246;9.100;2023-08-01T12:56:40;2.65;;;0.93;;
14118;SDS011;7138;49.246;9.100;2023-08-01T12:59:06;2.35;;;0.90;;
14118;SDS011;7138;49.246;9.100;2023-08-01T13:01:32;3.88;;;0.90;;
14118;SDS011;7138;49.246;9.100;2023-08-01T13:03:58;5.75;;;1.20;;
14118;SDS011;7138;49.246;9.100;2023-08-01T13:06:24;5.57;;;0.90;;
14118;SDS011;7138;49.246;9.100;2023-08-01T13:08:50;3.20;;;0.90;;
14118;SDS011;7138;49.246;9.100;2023-08-01T13:11:17;5.72;;;1.00;;
14118;SDS011;7138;49.246;9.100;2023-08-01T13:13:43;3.17;;;1.10;;
14118;SDS011;7138;49.246;9.100;2023-08-01T13:16:08;4.45;;;0.88;;
14118;SDS011;7138;49.246;9.100;2023-08-01T13:18:34;5.28;;;1.00;;
14118;SDS011;7138;49.246;9.100;2023-08-01T13:21:00;3.22;;;1.00;;
14118;SDS011;7138;49.246;9.100;2023-08-01T13:23:26;5.68;;;1.27;;
14118;SDS011;7138;49.246;9.100;2023-08-01T13:25:52;3.70;;;1.08;;
14118;SDS011;7138;49.246;9.100;2023-08-01T13:28:19;2.88;;;0.90;;
14118;SDS011;7138;49.246;9.100;2023-08-01T13:30:45;2.88;;;1.08;;
14118;SDS011;7138;49.246;9.100;2023-08-01T13:33:11;2.75;;;0.98;;
14118;SDS011;7138;49.246;9.100;2023-08-01T13:35:37;5.10;;;1.20;;
14118;SDS011;7138;49.246;9.100;2023-08-01T13:38:03;2.80;;;1.00;;
14118;SDS011;7138;49.246;9.100;2023-08-01T13:40:30;3.22;;;0.95;;
14118;SDS011;7138;49.246;9.100;2023-08-01T13:42:56;3.95;;;1.13;;
14118;SDS011;7138;49.246;9.100;2023-08-01T13:45:23;3.35;;;0.82;;
14118;SDS011;7138;49.246;9.100;2023-08-01T13:47:49;3.20;;;1.10;;
14118;SDS011;7138;49.246;9.100;2023-08-01T13:50:15;2.63;;;0.90;;
14118;SDS011;7138;49.246;9.100;2023-08-01T13:52:41;4.45;;;0.82;;
14118;SDS011;7138;49.246;9.100;2023-08-01T13:55:07;2.75;;;0.90;;
14118;SDS011;7138;49.246;9.100;2023-08-01T13:57:35;2.00;;;0.90;;
14118;SDS011;7138;49.246;9.100;2023-08-01T14:00:00;2.80;;;1.10;;
14118;SDS011;7138;49.246;9.100;2023-08-01T14:02:28;2.78;;;0.90;;
14118;SDS011;7138;49.246;9.100;2023-08-01T14:04:55;2.80;;;0.80;;
14118;SDS011;7138;49.246;9.100;2023-08-01T14:07:21;2.28;;;0.75;;
14118;SDS011;7138;49.246;9.100;2023-08-01T14:09:47;2.75;;;1.10;;
14118;SDS011;7138;49.246;9.100;2023-08-01T14:12:12;2.97;;;0.90;;
14118;SDS011;7138;49.246;9.100;2023-08-01T14:14:41;2.75;;;1.05;;
14118;SDS011;7138;49.246;9.100;2023-08-01T14:17:07;3.83;;;1.00;;
14118;SDS011;7138;49.246;9.100;2023-08-01T14:19:34;2.67;;;0.90;;
14118;SDS011;7138;49.246;9.100;2023-08-01T14:22:00;7.53;;;0.98;;
14118;SDS011;7138;49.246;9.100;2023-08-01T14:24:26;2.53;;;0.80;;
14118;SDS011;7138;49.246;9.100;2023-08-01T14:26:51;3.30;;;0.80;;
14118;SDS011;7138;49.246;9.100;2023-08-01T14:29:17;2.70;;;0.90;;
14118;SDS011;7138;49.246;9.100;2023-08-01T14:31:47;2.63;;;0.88;;
14118;SDS011;7138;49.246;9.100;2023-08-01T14:34:13;2.78;;;0.90;;
14118;SDS011;7138;49.246;9.100;2023-08-01T14:36:41;3.67;;;1.02;;
14118;SDS011;7138;49.246;9.100;2023-08-01T14:39:06;2.53;;;0.95;;
14118;SDS011;7138;49.246;9.100;2023-08-01T14:41:32;3.05;;;1.10;;
14118;SDS011;7138;49.246;9.100;2023-08-01T14:43:58;3.30;;;0.90;;
14118;SDS011;7138;49.246;9.100;2023-08-01T14:46:24;2.45;;;0.75;;
14118;SDS011;7138;49.246;9.100;2023-08-01T14:48:50;2.85;;;0.80;;
14118;SDS011;7138;49.246;9.100;2023-08-01T14:51:16;4.90;;;0.90;;
14118;SDS011;7138;49.246;9.100;2023-08-01T14:53:43;3.08;;;0.73;;
14118;SDS011;7138;49.246;9.100;2023-08-01T14:56:09;4.55;;;1.00;;
14118;SDS011;7138;49.246;9.100;2023-08-01T14:58:36;3.03;;;1.10;;